New Memphis, Illinois
Current Conditions -  °F | °C
As of 2:23 PM on Wednesday 26 Nov 2014 (Local Time) from KBLV Reporting Station
Light Snow Light Snow  
Wind Chill: 32°   Ceiling: 700
Heat Index: 32°   Visibility: 0.5mi
Dew Point: 32°   Wind: 2mph
Humidity: 100%   Direction: 90°E
Pressure: 29.99"   Gusts: NA
Location:  38.48°N, 89.68°W
Report Text: KBLV 262023Z AUTO 09002KT 1/2SM R14R/2400FT -SN FG VV007 00/00 A2999 RMK AO2 CIG 007V009
Loading
Personal Weather Stations






























Interactive Weather Map New forecast layout! Learn more

10-Day Weather Forecast

Advertisements
Track Severe Weather on mobile